Time;durP1;ratioP1;P1;durP2;ratioP2;P2;SDS_P1;SDS_P2;PMS_P1;PMS_P2;Temp;Humidity;BMP_temperature;BMP_pressure;BME280_temperature;BME280_humidity;BME280_pressure;Samples;Min_cycle;Max_cycle;Signal;HPM_P1;HPM_P2
2023/05/26 00:01:14;;;;;;;3.47;2.10;;;;;;;19.12;55.72;98700.16;5013345;28;20030;-76
2023/05/26 00:03:44;;;;;;;4.55;2.17;;;;;;;19.10;55.96;98696.81;4981401;28;20108;-76
2023/05/26 00:06:11;;;;;;;3.22;2.20;;;;;;;19.13;55.95;98699.13;4981959;28;20061;-76
2023/05/26 00:08:37;;;;;;;3.97;2.40;;;;;;;19.09;55.74;98692.56;5013099;28;20050;-76
2023/05/26 00:11:03;;;;;;;6.43;2.28;;;;;;;19.05;55.77;98697.34;4996528;28;20033;-76
2023/05/26 00:13:29;;;;;;;3.17;2.05;;;;;;;19.06;55.75;98703.47;4980807;28;20081;-77
2023/05/26 00:15:54;;;;;;;4.60;2.00;;;;;;;19.06;55.88;98695.53;4996990;28;20026;-77
2023/05/26 00:18:19;;;;;;;3.70;2.10;;;;;;;19.06;55.75;98699.00;5013850;28;20077;-77
2023/05/26 00:20:45;;;;;;;3.50;2.20;;;;;;;19.06;55.71;98692.91;5013120;28;20112;-77
2023/05/26 00:23:11;;;;;;;3.45;1.95;;;;;;;19.06;55.32;98685.78;4997049;28;20116;-77
2023/05/26 00:25:36;;;;;;;4.05;2.20;;;;;;;19.06;55.37;98685.78;5013180;28;20497;-77
2023/05/26 00:28:02;;;;;;;3.78;2.00;;;;;;;19.10;55.15;98688.88;4980403;28;20112;-77
2023/05/26 00:30:28;;;;;;;4.22;2.17;;;;;;;19.11;54.83;98685.25;5012837;28;20084;-77
2023/05/26 00:32:53;;;;;;;2.90;1.70;;;;;;;19.13;54.92;98677.97;5012970;28;20033;-78
2023/05/26 00:35:19;;;;;;;2.42;1.80;;;;;;;19.20;54.67;98684.22;5012638;28;20038;-77
2023/05/26 00:37:44;;;;;;;3.25;1.85;;;;;;;19.24;54.26;98682.03;4996783;28;20541;-77
2023/05/26 00:40:11;;;;;;;3.90;1.75;;;;;;;19.27;53.97;98685.16;5012715;28;20192;-77
2023/05/26 00:42:36;;;;;;;4.03;1.70;;;;;;;19.28;53.57;98680.72;5028309;28;20121;-77
2023/05/26 00:45:02;;;;;;;2.58;1.77;;;;;;;19.31;53.35;98675.88;5012383;28;20125;-77
2023/05/26 00:47:28;;;;;;;2.70;1.65;;;;;;;19.38;53.11;98685.78;4996752;28;20038;-78
2023/05/26 00:49:53;;;;;;;3.88;1.92;;;;;;;19.40;52.93;98679.28;5013935;28;20034;-78
2023/05/26 00:52:19;;;;;;;4.38;1.77;;;;;;;19.42;52.75;98679.13;4980375;28;20041;-76
2023/05/26 00:54:45;;;;;;;3.47;1.80;;;;;;;19.44;52.52;98674.50;5013936;28;20565;-76
2023/05/26 00:57:10;;;;;;;3.05;1.50;;;;;;;19.49;52.31;98677.44;5012487;28;20062;-77
2023/05/26 00:59:36;;;;;;;4.80;2.00;;;;;;;19.51;52.09;98678.06;5029391;28;20041;-76
2023/05/26 01:02:02;;;;;;;3.42;2.00;;;;;;;19.54;51.97;98675.06;5012633;28;20038;-77
2023/05/26 01:04:29;;;;;;;2.92;1.60;;;;;;;19.56;51.98;98674.91;4995953;28;20180;-76
2023/05/26 01:06:55;;;;;;;4.90;1.70;;;;;;;19.58;51.72;98675.56;5012714;28;20061;-77
2023/05/26 01:09:20;;;;;;;2.67;1.45;;;;;;;19.59;51.46;98675.34;5013597;28;20088;-77
2023/05/26 01:12:01;;;;;;;4.05;1.90;;;;;;;19.62;51.44;98668.91;4995577;28;20485;-76
2023/05/26 01:14:47;;;;;;;2.90;1.70;;;;;;;19.63;51.50;98668.72;4976854;28;20030;-76
2023/05/26 01:17:26;;;;;;;3.63;1.80;;;;;;;19.61;51.36;98665.44;5008617;28;20039;-76
2023/05/26 01:20:17;;;;;;;2.28;1.63;;;;;;;19.65;51.36;98673.84;4972897;28;20505;-76
2023/05/26 01:22:47;;;;;;;3.20;1.83;;;;;;;19.69;51.29;98672.50;4959664;28;20053;-76
2023/05/26 01:25:39;;;;;;;4.28;1.60;;;;;;;19.70;51.20;98669.66;4972797;28;20117;-76
2023/05/26 01:28:05;;;;;;;3.83;1.83;;;;;;;19.73;51.25;98665.00;4973291;28;20033;-76
2023/05/26 01:30:31;;;;;;;2.63;1.58;;;;;;;19.69;51.24;98653.97;4973987;28;20022;-76
2023/05/26 01:32:57;;;;;;;5.13;1.73;;;;;;;19.73;51.20;98660.53;4957126;28;20023;-77
2023/05/26 01:35:22;;;;;;;5.63;2.10;;;;;;;19.73;51.12;98665.81;4972890;28;20509;-76
2023/05/26 01:37:48;;;;;;;2.72;1.50;;;;;;;19.73;51.12;98665.00;4972884;28;20026;-76
2023/05/26 01:40:13;;;;;;;2.15;1.30;;;;;;;19.71;51.00;98662.53;4972883;28;20039;-76
2023/05/26 01:42:41;;;;;;;4.28;2.00;;;;;;;19.73;51.23;98665.00;4973096;28;20035;-76
2023/05/26 01:45:11;;;;;;;4.55;1.80;;;;;;;19.72;51.27;98674.78;4940269;28;20114;-76
2023/05/26 01:47:37;;;;;;;3.85;1.85;;;;;;;19.71;51.39;98666.00;4956730;28;20027;-76
2023/05/26 01:50:03;;;;;;;3.03;1.58;;;;;;;19.69;51.30;98662.72;4972870;28;20178;-77
2023/05/26 01:52:29;;;;;;;5.00;1.80;;;;;;;19.68;51.41;98666.34;4973950;28;20026;-77
2023/05/26 01:55:07;;;;;;;3.88;1.70;;;;;;;19.70;51.49;98666.19;4972936;28;20034;-76
2023/05/26 01:57:33;;;;;;;4.30;1.90;;;;;;;19.69;51.38;98675.97;4958090;28;20471;-76
2023/05/26 01:59:58;;;;;;;2.80;1.70;;;;;;;19.69;51.39;98675.16;4972590;28;20031;-76
2023/05/26 02:02:24;;;;;;;4.90;1.77;;;;;;;19.65;51.23;98660.59;4972916;28;20035;-76
2023/05/26 02:04:49;;;;;;;5.03;1.83;;;;;;;19.69;51.35;98664.56;4972772;28;20039;-76
2023/05/26 02:07:15;;;;;;;2.65;1.77;;;;;;;19.65;51.28;98655.31;4972411;28;20030;-75
2023/05/26 02:09:41;;;;;;;6.25;1.55;;;;;;;19.66;51.33;98652.47;4972392;28;20038;-77
2023/05/26 02:12:07;;;;;;;2.53;1.90;;;;;;;19.66;51.39;98662.25;4975020;28;20050;-76
2023/05/26 02:14:32;;;;;;;5.63;1.92;;;;;;;19.67;51.27;98655.94;4959490;28;20029;-76
2023/05/26 02:16:58;;;;;;;3.72;1.52;;;;;;;19.67;51.08;98651.50;4993090;28;20038;-76
2023/05/26 02:19:25;;;;;;;3.25;1.63;;;;;;;19.70;51.22;98655.59;4964694;28;20076;-76
2023/05/26 02:21:50;;;;;;;2.88;1.70;;;;;;;19.65;51.15;98655.31;5011228;28;20378;-75
2023/05/26 02:24:16;;;;;;;4.20;1.63;;;;;;;19.67;51.14;98650.66;4994578;28;20068;-76
2023/05/26 02:26:41;;;;;;;2.40;1.70;;;;;;;19.68;51.15;98655.75;5010704;28;20026;-75
2023/05/26 02:29:07;;;;;;;2.15;1.60;;;;;;;19.66;51.15;98649.00;5011347;28;20037;-77
2023/05/26 02:31:34;;;;;;;2.63;1.75;;;;;;;19.67;51.12;98643.53;5011012;28;20492;-77
2023/05/26 02:34:01;;;;;;;3.63;1.98;;;;;;;19.68;51.21;98655.75;5011189;28;20034;-77
2023/05/26 02:36:26;;;;;;;4.38;1.65;;;;;;;19.67;51.20;98654.13;5011175;28;20030;-75
2023/05/26 02:38:52;;;;;;;2.30;1.73;;;;;;;19.69;51.14;98652.13;5012629;28;20092;-76
2023/05/26 02:41:17;;;;;;;2.58;1.63;;;;;;;19.68;51.20;98647.81;5010372;28;20046;-76
2023/05/26 02:43:43;;;;;;;2.65;1.80;;;;;;;19.68;51.17;98653.13;5011092;28;20033;-75
2023/05/26 02:46:08;;;;;;;2.33;1.65;;;;;;;19.69;51.29;98656.59;4994663;28;20529;-76
2023/05/26 02:48:34;;;;;;;3.05;2.00;;;;;;;19.69;51.42;98659.25;5011209;28;20034;-76
2023/05/26 02:50:59;;;;;;;2.22;1.50;;;;;;;19.67;51.37;98656.78;5010015;28;20045;-77
2023/05/26 02:53:25;;;;;;;3.00;1.77;;;;;;;19.68;51.39;98658.41;5010780;28;20034;-76
2023/05/26 02:55:51;;;;;;;2.72;1.75;;;;;;;19.70;51.33;98656.44;5010923;28;20509;-76
2023/05/26 02:58:16;;;;;;;3.45;1.63;;;;;;;19.69;51.19;98649.47;5013984;28;20053;-76
2023/05/26 03:00:42;;;;;;;2.45;1.67;;;;;;;19.73;51.11;98655.22;4982477;28;20412;-76
2023/05/26 03:03:08;;;;;;;3.78;1.88;;;;;;;19.85;50.88;98660.97;4982319;28;20045;-76
2023/05/26 03:05:33;;;;;;;3.00;1.67;;;;;;;19.85;50.97;98661.78;4998744;28;20088;-78
2023/05/26 03:07:59;;;;;;;5.95;1.80;;;;;;;19.88;50.63;98672.03;4998021;28;20053;-77
2023/05/26 03:10:24;;;;;;;2.50;1.90;;;;;;;19.92;50.45;98667.19;5013901;28;20490;-78
2023/05/26 03:12:49;;;;;;;5.35;2.05;;;;;;;19.96;50.46;98680.91;4998860;28;20460;-80
2023/05/26 03:15:15;;;;;;;11.93;2.35;;;;;;;19.99;50.45;98689.31;5014194;28;20018;-77
2023/05/26 03:17:40;;;;;;;5.10;2.13;;;;;;;19.99;50.43;98680.56;5015657;28;20456;-79
2023/05/26 03:20:06;;;;;;;4.03;2.15;;;;;;;20.05;50.34;98685.97;4998200;28;20054;-79
2023/05/26 03:22:32;;;;;;;5.47;2.40;;;;;;;20.09;50.41;98682.97;5014615;28;20079;-80
2023/05/26 03:24:57;;;;;;;6.35;2.60;;;;;;;20.13;50.59;98687.72;5014232;28;20405;-79
2023/05/26 03:27:23;;;;;;;4.70;2.30;;;;;;;20.18;50.40;98687.19;4997389;28;20038;-82
2023/05/26 03:29:49;;;;;;;5.32;2.53;;;;;;;20.18;50.18;98692.47;4998285;28;20535;-76
2023/05/26 03:32:15;;;;;;;4.18;2.33;;;;;;;20.24;50.19;98691.75;4997555;28;20057;-78
2023/05/26 03:34:40;;;;;;;6.18;2.85;;;;;;;20.30;49.81;98696.31;4980464;28;20058;-77
2023/05/26 03:37:06;;;;;;;6.03;2.50;;;;;;;20.77;48.76;98703.16;4997310;28;20034;-76
2023/05/26 03:39:32;;;;;;;6.03;2.55;;;;;;;21.15;60.35;98705.66;5013703;28;20413;-73
2023/05/26 03:41:57;;;;;;;18.35;2.47;;;;;;;21.39;60.32;98709.00;5015003;28;20064;-73
2023/05/26 03:44:23;;;;;;;13.52;2.90;;;;;;;21.65;58.93;98713.81;4997527;28;20064;-70
2023/05/26 03:46:49;;;;;;;13.38;2.58;;;;;;;21.85;58.59;98705.19;5013442;28;20409;-75
2023/05/26 03:49:14;;;;;;;14.55;2.63;;;;;;;22.06;57.72;98717.66;4977579;28;20030;-74
2023/05/26 03:51:40;;;;;;;10.90;2.70;;;;;;;22.24;56.77;98727.81;4977872;28;20031;-71
2023/05/26 03:54:05;;;;;;;5.35;2.40;;;;;;;22.39;55.78;98728.59;5012973;28;20034;-72
2023/05/26 03:56:32;;;;;;;11.13;2.90;;;;;;;22.49;55.51;98722.91;4981259;28;20426;-70
2023/05/26 03:58:57;;;;;;;7.97;2.90;;;;;;;22.56;55.00;98722.94;5015014;28;20033;-70
2023/05/26 04:01:23;;;;;;;12.07;3.67;;;;;;;22.68;54.93;98724.06;4996681;28;20100;-70
2023/05/26 04:03:49;;;;;;;13.85;3.70;;;;;;;22.78;54.50;98726.34;5013455;28;20045;-71
2023/05/26 04:06:14;;;;;;;13.45;3.63;;;;;;;22.87;54.48;98727.03;5013234;28;20033;-72
2023/05/26 04:08:39;;;;;;;19.00;3.30;;;;;;;22.92;54.07;98725.41;5012403;28;20034;-71
2023/05/26 04:11:05;;;;;;;10.90;3.03;;;;;;;23.04;53.76;98723.03;4996423;28;20045;-71
2023/05/26 04:13:31;;;;;;;14.80;3.45;;;;;;;23.10;53.49;98729.41;4980315;28;20053;-70
2023/05/26 04:15:57;;;;;;;11.23;3.15;;;;;;;23.17;53.41;98732.94;4997007;28;20021;-76
2023/05/26 04:18:23;;;;;;;6.88;3.63;;;;;;;23.38;52.43;98734.63;4978123;28;20486;-76
2023/05/26 04:20:49;;;;;;;11.15;3.50;;;;;;;23.53;51.92;98734.50;4993635;28;20067;-76
2023/05/26 04:23:15;;;;;;;8.82;3.67;;;;;;;24.66;48.99;98733.75;4993667;28;20117;-77
2023/05/26 04:25:40;;;;;;;7.30;3.00;;;;;;;25.79;46.06;98729.81;4961373;28;20386;-76
2023/05/26 04:28:07;;;;;;;9.85;3.60;;;;;;;27.06;41.82;98731.38;4993481;28;20077;-76
2023/05/26 04:30:38;;;;;;;7.80;3.40;;;;;;;26.44;42.36;98736.75;4993599;28;20034;-76
2023/05/26 04:33:05;;;;;;;7.97;3.10;;;;;;;26.26;42.75;98736.69;4978208;28;20032;-77
2023/05/26 04:35:31;;;;;;;10.02;3.20;;;;;;;26.59;42.50;98733.69;4976919;28;20101;-69
2023/05/26 04:37:56;;;;;;;10.77;3.42;;;;;;;26.44;41.59;98736.75;4994215;28;20038;-68
2023/05/26 04:40:23;;;;;;;6.25;3.00;;;;;;;26.18;42.29;98741.25;4993106;28;20042;-67
2023/05/26 04:42:48;;;;;;;7.82;3.40;;;;;;;25.87;42.43;98743.94;4961027;28;20528;-69
2023/05/26 04:45:14;;;;;;;6.35;2.75;;;;;;;25.53;42.33;98741.47;4993017;28;20030;-70
2023/05/26 04:47:40;;;;;;;10.15;3.33;;;;;;;25.23;42.81;98741.19;4993041;28;20034;-67
2023/05/26 04:50:06;;;;;;;9.35;3.58;;;;;;;25.15;43.21;98746.78;4977048;28;20246;-72
2023/05/26 04:52:32;;;;;;;12.38;3.42;;;;;;;25.08;47.03;98750.28;4976563;28;20497;-74
2023/05/26 04:54:57;;;;;;;13.98;3.88;;;;;;;25.03;47.85;98749.25;4993060;28;20035;-70
2023/05/26 04:57:23;;;;;;;9.77;3.58;;;;;;;24.87;46.64;98747.88;4996905;28;20022;-68
2023/05/26 04:59:49;;;;;;;9.02;3.00;;;;;;;24.63;41.51;98736.84;4993024;28;20441;-78
2023/05/26 05:02:15;;;;;;;9.25;3.45;;;;;;;24.22;41.45;98737.88;4961114;28;20038;-78
2023/05/26 05:04:42;;;;;;;14.98;3.40;;;;;;;24.09;41.85;98743.22;4993081;28;20504;-74
2023/05/26 05:07:08;;;;;;;13.70;3.40;;;;;;;24.15;42.73;98743.22;4997286;28;20535;-74
2023/05/26 05:09:34;;;;;;;18.23;3.45;;;;;;;24.10;42.78;98739.50;4993426;28;20498;-76
2023/05/26 05:12:00;;;;;;;10.32;3.47;;;;;;;24.05;43.07;98740.13;4992874;28;20038;-75
2023/05/26 05:14:26;;;;;;;13.77;3.90;;;;;;;23.97;43.39;98738.50;4976565;28;20052;-77
2023/05/26 05:16:51;;;;;;;12.60;3.40;;;;;;;23.93;43.88;98745.25;4998488;28;20544;-73
2023/05/26 05:19:17;;;;;;;15.50;3.60;;;;;;;23.81;44.40;98739.66;4995801;28;20060;-74
2023/05/26 05:21:42;;;;;;;9.98;3.42;;;;;;;23.72;45.07;98745.38;4995593;28;20038;-74
2023/05/26 05:24:08;;;;;;;12.45;3.63;;;;;;;23.64;45.48;98747.22;4989915;28;20058;-75
2023/05/26 05:26:33;;;;;;;13.52;3.70;;;;;;;23.54;45.58;98752.09;4974511;28;20021;-75
2023/05/26 05:28:59;;;;;;;8.90;3.25;;;;;;;23.46;45.81;98761.09;4973182;28;20034;-72
2023/05/26 05:31:24;;;;;;;14.32;4.10;;;;;;;23.37;46.96;98764.97;4996189;28;20108;-73
2023/05/26 05:33:49;;;;;;;18.35;3.75;;;;;;;23.32;47.07;98771.91;5012167;28;20477;-75
2023/05/26 05:36:15;;;;;;;10.40;3.70;;;;;;;23.37;51.49;98778.28;4995866;28;20038;-71
2023/05/26 05:38:41;;;;;;;10.40;3.75;;;;;;;23.48;50.89;98779.53;4993223;28;20092;-73
2023/05/26 05:41:06;;;;;;;18.30;3.67;;;;;;;23.43;49.28;98782.00;4992766;28;20049;-75
2023/05/26 05:43:32;;;;;;;12.25;3.28;;;;;;;23.33;48.91;98784.22;4959884;28;20104;-73
2023/05/26 05:45:58;;;;;;;13.32;3.60;;;;;;;23.18;48.69;98787.00;4992345;28;20058;-73
2023/05/26 05:48:24;;;;;;;13.90;3.78;;;;;;;23.07;48.75;98789.19;4993625;28;20425;-78
2023/05/26 05:50:49;;;;;;;13.88;4.03;;;;;;;22.96;48.98;98789.72;4991070;28;20473;-75
2023/05/26 05:53:15;;;;;;;9.80;4.07;;;;;;;23.03;51.75;98803.09;4978429;28;20402;-77
2023/05/26 05:55:40;;;;;;;24.58;4.50;;;;;;;23.14;51.37;98799.91;5012404;28;20405;-70
2023/05/26 05:58:06;;;;;;;18.20;4.32;;;;;;;23.18;51.30;98793.13;5012514;28;20505;-70
2023/05/26 06:00:31;;;;;;;13.55;4.03;;;;;;;23.26;50.88;98802.81;4994527;28;20036;-75
2023/05/26 06:02:57;;;;;;;24.48;4.10;;;;;;;23.29;51.03;98800.59;5007766;28;20539;-73
2023/05/26 06:05:22;;;;;;;16.23;3.90;;;;;;;23.32;51.31;98791.38;5008999;28;20410;-72
2023/05/26 06:07:48;;;;;;;16.83;4.03;;;;;;;23.34;51.94;98801.81;5010658;28;20452;-74
2023/05/26 06:10:13;;;;;;;12.00;3.70;;;;;;;23.38;52.22;98800.41;4994169;28;20038;-74
2023/05/26 06:12:39;;;;;;;11.55;4.00;;;;;;;23.40;52.27;98801.03;5009953;28;20061;-74
2023/05/26 06:15:04;;;;;;;11.90;3.92;;;;;;;23.42;52.51;98799.81;4994119;28;20050;-75
2023/05/26 06:17:30;;;;;;;31.45;6.15;;;;;;;23.46;52.88;98806.38;5003135;28;20405;-77
2023/05/26 06:19:55;;;;;;;20.88;5.72;;;;;;;23.53;53.94;98800.25;4991160;28;20105;-73
2023/05/26 06:22:21;;;;;;;21.08;5.40;;;;;;;23.56;54.08;98800.69;4990696;28;20038;-76
2023/05/26 06:24:46;;;;;;;29.13;6.45;;;;;;;23.59;54.14;98802.94;4973325;28;20030;-73
2023/05/26 06:27:12;;;;;;;36.03;7.30;;;;;;;23.67;53.80;98809.94;4987859;28;20042;-75
2023/05/26 06:29:37;;;;;;;31.23;7.05;;;;;;;23.71;54.23;98800.53;4990022;28;20030;-73
2023/05/26 06:32:03;;;;;;;31.02;6.40;;;;;;;23.75;54.18;98815.13;4973426;28;20081;-76
2023/05/26 06:34:29;;;;;;;28.08;5.80;;;;;;;23.77;54.02;98814.91;4971558;28;20054;-73
2023/05/26 06:36:54;;;;;;;18.23;5.03;;;;;;;23.73;53.59;98813.66;4986294;28;20053;-71
2023/05/26 06:39:20;;;;;;;21.50;4.97;;;;;;;23.73;53.48;98826.97;4991918;28;20046;-75
2023/05/26 06:41:46;;;;;;;17.73;4.80;;;;;;;23.74;53.65;98823.31;4973761;28;20501;-72
2023/05/26 06:44:12;;;;;;;20.58;4.38;;;;;;;23.76;54.10;98827.41;4975157;28;20022;-72
2023/05/26 06:46:38;;;;;;;28.83;5.40;;;;;;;23.78;53.91;98828.03;4956343;28;20500;-70
2023/05/26 06:49:03;;;;;;;33.75;4.45;;;;;;;23.80;54.11;98817.19;4973397;28;20141;-71
2023/05/26 06:51:29;;;;;;;19.95;4.15;;;;;;;23.81;53.66;98827.59;4974444;28;20034;-74
2023/05/26 06:53:55;;;;;;;19.42;3.78;;;;;;;23.81;53.41;98821.47;4959206;28;20038;-73
2023/05/26 06:56:21;;;;;;;18.15;3.35;;;;;;;23.79;53.56;98831.50;4991577;28;20124;-71
2023/05/26 06:58:46;;;;;;;12.93;3.40;;;;;;;23.72;53.05;98825.31;4974877;28;20033;-72
2023/05/26 07:01:12;;;;;;;20.83;3.65;;;;;;;23.66;53.09;98824.31;4991227;28;20039;-72
2023/05/26 07:03:37;;;;;;;14.88;3.40;;;;;;;23.65;52.60;98834.13;4991254;28;20046;-74
2023/05/26 07:06:06;;;;;;;18.52;3.65;;;;;;;23.62;52.96;98839.84;4974795;28;20077;-78
2023/05/26 07:08:32;;;;;;;15.15;3.15;;;;;;;23.60;53.42;98835.75;4975421;28;20039;-76
2023/05/26 07:10:57;;;;;;;12.35;3.05;;;;;;;23.55;52.88;98847.00;4992409;28;20042;-75
2023/05/26 07:13:23;;;;;;;14.60;3.30;;;;;;;23.53;52.92;98848.22;4958926;28;20045;-76
2023/05/26 07:15:49;;;;;;;10.55;3.05;;;;;;;23.48;52.88;98848.81;4992395;28;20026;-73
2023/05/26 07:18:14;;;;;;;7.95;2.90;;;;;;;23.45;52.67;98849.19;4958902;28;20042;-80
2023/05/26 07:20:40;;;;;;;13.98;3.35;;;;;;;23.44;52.83;98850.25;4973217;28;20060;-70
2023/05/26 07:23:05;;;;;;;12.35;2.85;;;;;;;23.48;53.25;98851.47;5000746;28;20061;-70
2023/05/26 07:25:31;;;;;;;12.50;2.97;;;;;;;23.55;53.63;98846.19;4996058;28;20027;-73
2023/05/26 07:27:56;;;;;;;10.15;2.88;;;;;;;23.55;53.79;98843.53;5011046;28;20033;-75
2023/05/26 07:30:22;;;;;;;16.83;2.72;;;;;;;23.59;53.35;98834.09;4979051;28;20037;-78
2023/05/26 07:32:48;;;;;;;10.95;2.80;;;;;;;23.66;53.16;98835.78;4969011;28;20034;-78
2023/05/26 07:35:13;;;;;;;10.85;2.60;;;;;;;23.70;52.69;98840.69;4964044;28;20471;-76
2023/05/26 07:37:40;;;;;;;15.23;2.78;;;;;;;23.70;52.77;98830.84;4975206;28;20064;-76
2023/05/26 07:40:06;;;;;;;9.57;2.85;;;;;;;23.75;53.17;98828.44;4975317;28;20034;-78
2023/05/26 07:42:32;;;;;;;10.75;2.90;;;;;;;23.79;52.98;98819.00;4969557;28;20453;-78
2023/05/26 07:44:58;;;;;;;7.05;2.40;;;;;;;23.81;52.79;98824.13;5010021;28;20401;-76
2023/05/26 07:47:23;;;;;;;12.55;2.65;;;;;;;23.84;52.70;98826.44;4981617;28;20034;-77
2023/05/26 07:49:51;;;;;;;12.95;2.58;;;;;;;23.85;52.67;98828.09;4984134;28;20084;-77
2023/05/26 07:52:16;;;;;;;5.28;2.42;;;;;;;23.90;52.49;98822.97;4976124;28;20560;-77
2023/05/26 07:54:42;;;;;;;14.35;2.95;;;;;;;24.02;52.70;98823.19;4978467;28;20042;-78
2023/05/26 07:57:07;;;;;;;8.13;2.53;;;;;;;24.19;52.28;98815.63;4978385;28;20026;-73
2023/05/26 07:59:33;;;;;;;10.90;2.55;;;;;;;24.39;51.95;98818.31;4994655;28;20125;-73
2023/05/26 08:01:58;;;;;;;11.55;2.63;;;;;;;24.56;51.35;98814.25;4996547;28;20035;-71
2023/05/26 08:04:24;;;;;;;19.50;2.63;;;;;;;24.79;51.08;98814.84;4978099;28;20037;-70
2023/05/26 08:06:49;;;;;;;8.95;2.67;;;;;;;25.02;50.73;98811.72;4978074;28;20046;-68
2023/05/26 08:09:15;;;;;;;12.13;2.55;;;;;;;25.16;50.28;98815.16;4978011;28;20046;-70
2023/05/26 08:11:40;;;;;;;13.35;2.70;;;;;;;25.36;49.40;98810.63;4977707;28;20038;-69
2023/05/26 08:14:06;;;;;;;12.95;2.40;;;;;;;25.62;49.20;98816.91;4994360;28;20026;-69
2023/05/26 08:16:32;;;;;;;4.78;2.20;;;;;;;25.97;48.31;98813.88;4977807;28;20053;-69
2023/05/26 08:18:57;;;;;;;8.00;2.35;;;;;;;26.34;47.54;98819.34;4996581;28;20077;-69
2023/05/26 08:21:23;;;;;;;6.22;2.38;;;;;;;26.57;47.11;98805.38;4970727;28;20053;-69
2023/05/26 08:23:48;;;;;;;11.82;2.25;;;;;;;26.83;46.76;98807.00;5034372;28;20115;-68
2023/05/26 08:26:14;;;;;;;5.47;2.30;;;;;;;27.10;45.80;98809.41;4983598;28;20404;-69
2023/05/26 08:28:39;;;;;;;6.75;1.92;;;;;;;27.35;44.75;98803.19;5010467;28;20136;-69
2023/05/26 08:31:05;;;;;;;8.65;2.20;;;;;;;27.53;44.13;98808.56;5034451;28;20029;-75
2023/05/26 08:33:31;;;;;;;3.72;1.67;;;;;;;27.69;43.73;98799.06;5017069;28;20041;-69
2023/05/26 08:35:56;;;;;;;4.00;1.80;;;;;;;27.92;42.95;98798.31;5016856;28;20030;-68
2023/05/26 08:38:21;;;;;;;3.38;1.52;;;;;;;28.41;42.44;98800.91;4998844;28;20037;-70
2023/05/26 08:40:47;;;;;;;5.22;1.85;;;;;;;29.13;41.76;98805.22;5014309;28;20057;-69
2023/05/26 08:43:13;;;;;;;4.78;1.88;;;;;;;29.61;40.79;98797.06;4996827;28;20095;-70
2023/05/26 08:45:38;;;;;;;3.55;1.60;;;;;;;29.95;39.91;98806.03;4980118;28;20455;-70
2023/05/26 08:48:07;;;;;;;3.72;1.70;;;;;;;30.26;39.28;98798.50;5012607;28;20493;-70
2023/05/26 08:50:33;;;;;;;2.65;1.40;;;;;;;30.53;38.61;98796.00;4996795;28;20030;-70
2023/05/26 08:53:00;;;;;;;4.68;1.40;;;;;;;30.71;37.59;98792.22;4996548;28;20091;-68
2023/05/26 08:55:26;;;;;;;3.38;1.60;;;;;;;31.14;36.59;98796.06;4997644;28;20121;-69
2023/05/26 08:57:51;;;;;;;3.97;1.42;;;;;;;31.43;36.35;98790.47;4982683;28;20026;-67
2023/05/26 09:00:17;;;;;;;3.33;1.52;;;;;;;31.87;35.85;98785.03;5000306;28;20034;-69
2023/05/26 09:02:43;;;;;;;3.42;1.60;;;;;;;32.25;35.21;98780.50;4999379;28;20183;-68
2023/05/26 09:05:08;;;;;;;2.83;1.63;;;;;;;32.56;34.45;98779.91;5016061;28;20040;-70
2023/05/26 09:07:34;;;;;;;4.28;1.42;;;;;;;32.66;33.95;98784.59;5015475;28;20045;-67
2023/05/26 09:10:26;;;;;;;3.05;1.50;;;;;;;32.53;34.15;98777.72;5033705;28;20110;-67
2023/05/26 09:13:05;;;;;;;2.47;1.40;;;;;;;32.41;34.02;98784.16;4921333;29;20039;-68
2023/05/26 09:15:30;;;;;;;6.10;1.63;;;;;;;32.30;33.01;98779.75;4921498;29;20411;-67
2023/05/26 09:18:25;;;;;;;2.40;1.30;;;;;;;32.13;33.12;98781.78;4936551;29;20050;-68
2023/05/26 09:20:51;;;;;;;4.63;1.40;;;;;;;32.03;32.74;98777.88;4914808;29;20048;-67
2023/05/26 09:23:17;;;;;;;3.50;1.55;;;;;;;31.91;32.61;98780.75;4914778;29;20047;-67
2023/05/26 09:25:44;;;;;;;2.88;1.40;;;;;;;31.83;33.21;98772.28;4898903;29;20048;-67
2023/05/26 09:28:11;;;;;;;3.20;1.40;;;;;;;31.74;32.86;98764.66;4899487;29;20028;-67
2023/05/26 09:30:38;;;;;;;4.33;1.60;;;;;;;31.62;32.97;98771.28;4899164;29;20103;-68
2023/05/26 09:33:08;;;;;;;5.10;1.35;;;;;;;31.58;32.86;98770.16;4899135;29;20568;-68
2023/05/26 09:35:43;;;;;;;2.30;1.27;;;;;;;31.55;33.38;98766.91;4898881;29;20589;-68
2023/05/26 09:38:10;;;;;;;4.45;1.67;;;;;;;31.46;32.90;98765.69;4899025;29;20059;-71
2023/05/26 09:40:42;;;;;;;3.28;1.80;;;;;;;31.48;33.23;98773.53;4898946;29;20038;-67
2023/05/26 09:43:08;;;;;;;3.30;1.70;;;;;;;31.36;33.36;98762.91;4898649;29;20047;-68
2023/05/26 09:45:37;;;;;;;3.50;1.70;;;;;;;31.27;33.49;98765.22;4914486;29;20032;-67
2023/05/26 09:48:04;;;;;;;3.15;1.73;;;;;;;31.23;33.77;98755.97;4914287;29;20047;-69
2023/05/26 09:50:30;;;;;;;6.15;1.88;;;;;;;31.20;33.80;98746.53;4901380;29;20040;-68
2023/05/26 09:52:56;;;;;;;2.35;1.52;;;;;;;31.13;33.98;98748.59;4917356;29;20484;-71
2023/05/26 09:55:22;;;;;;;3.80;1.60;;;;;;;31.22;33.95;98748.97;4933310;29;20034;-67
2023/05/26 09:57:47;;;;;;;4.72;2.72;;;;;;;31.18;34.12;98731.66;4988465;28;20041;-68
2023/05/26 10:00:16;;;;;;;6.93;3.13;;;;;;;31.31;33.76;98730.47;5014943;28;20117;-68
2023/05/26 10:02:42;;;;;;;5.65;3.38;;;;;;;31.31;33.94;98720.50;4982253;28;20049;-68
2023/05/26 10:05:07;;;;;;;7.15;3.20;;;;;;;31.35;33.78;98724.31;4998504;28;20029;-68
2023/05/26 10:07:33;;;;;;;4.85;2.80;;;;;;;31.38;33.41;98723.00;5014112;28;20030;-68
2023/05/26 10:09:59;;;;;;;3.70;2.00;;;;;;;31.38;33.45;98710.31;4998265;28;20452;-68
2023/05/26 10:12:28;;;;;;;4.03;2.20;;;;;;;31.26;33.29;98706.13;4998358;28;20034;-69
2023/05/26 10:14:54;;;;;;;3.60;2.20;;;;;;;31.31;33.27;98706.19;5014595;28;20482;-68
2023/05/26 10:17:21;;;;;;;3.85;2.10;;;;;;;31.35;33.10;98702.72;5014534;28;20044;-68
2023/05/26 10:19:47;;;;;;;3.40;1.83;;;;;;;31.38;33.12;98696.03;4998322;28;20076;-69
2023/05/26 10:22:16;;;;;;;4.82;2.05;;;;;;;31.38;33.05;98702.22;4998545;28;20069;-68
2023/05/26 10:24:50;;;;;;;3.95;2.05;;;;;;;31.34;33.00;98686.81;4982636;28;20428;-70
2023/05/26 10:28:02;;;;;;;2.38;1.55;;;;;;;31.23;33.24;98687.78;5069347;28;20394;-67
2023/05/26 10:30:27;;;;;;;5.07;2.05;;;;;;;31.18;32.79;98675.84;5030846;28;20060;-68
2023/05/26 10:33:06;;;;;;;4.60;1.80;;;;;;;31.13;32.65;98667.72;5030615;28;20029;-67
2023/05/26 10:35:32;;;;;;;5.15;1.75;;;;;;;31.05;32.75;98657.41;5030749;28;20566;-69
2023/05/26 10:38:03;;;;;;;3.15;1.65;;;;;;;31.01;33.22;98667.03;5047161;28;20041;-67
2023/05/26 10:40:39;;;;;;;3.35;1.60;;;;;;;30.94;33.10;98664.50;5047080;28;20203;-69
2023/05/26 10:43:13;;;;;;;3.35;1.58;;;;;;;30.89;32.98;98667.16;5030177;28;20056;-67
2023/05/26 10:45:52;;;;;;;3.45;1.60;;;;;;;30.82;33.25;98664.66;5030173;28;20188;-66
2023/05/26 10:48:18;;;;;;;4.07;1.60;;;;;;;30.76;33.05;98662.97;5046854;28;20064;-68
2023/05/26 10:50:55;;;;;;;3.55;1.80;;;;;;;30.69;32.82;98654.25;5030358;28;20060;-68
2023/05/26 10:53:21;;;;;;;3.08;1.60;;;;;;;30.65;33.05;98655.84;5046810;28;20029;-68
2023/05/26 10:56:03;;;;;;;2.35;1.50;;;;;;;30.57;32.91;98654.38;5013747;28;20041;-67
2023/05/26 10:58:29;;;;;;;2.85;1.38;;;;;;;30.44;32.88;98646.66;5015090;28;20033;-67
2023/05/26 11:00:55;;;;;;;7.45;1.52;;;;;;;30.40;32.55;98648.25;5046637;28;20033;-69
2023/05/26 11:03:38;;;;;;;3.72;1.45;;;;;;;30.31;32.28;98628.97;5013537;28;20033;-68
2023/05/26 11:06:04;;;;;;;4.93;1.48;;;;;;;30.22;32.61;98638.50;5031424;28;20515;-68
2023/05/26 11:08:49;;;;;;;6.35;1.45;;;;;;;30.07;32.63;98639.13;5050709;28;20602;-68
2023/05/26 11:11:26;;;;;;;2.78;1.25;;;;;;;29.92;32.71;98645.91;5050670;28;20025;-67
2023/05/26 11:13:57;;;;;;;3.97;1.55;;;;;;;29.89;32.69;98648.28;5050612;28;20032;-67
2023/05/26 11:16:23;;;;;;;5.03;1.58;;;;;;;29.77;32.82;98626.81;5051768;28;20037;-68
2023/05/26 11:18:53;;;;;;;3.22;1.38;;;;;;;29.62;32.97;98656.97;5050723;28;20032;-67
2023/05/26 11:21:23;;;;;;;3.65;1.50;;;;;;;29.67;33.06;98637.41;5034011;28;20036;-69
2023/05/26 11:23:51;;;;;;;4.80;1.38;;;;;;;29.71;32.89;98644.72;5033883;28;20098;-68
2023/05/26 11:26:17;;;;;;;6.10;1.50;;;;;;;29.75;33.31;98640.50;5033579;28;20059;-69
2023/05/26 11:28:43;;;;;;;3.30;1.50;;;;;;;29.85;33.18;98636.38;5050906;28;20033;-68
2023/05/26 11:31:13;;;;;;;4.00;1.73;;;;;;;29.66;33.15;98620.44;5050474;28;20028;-67